sensor_id;sensor_type;location;lat;lon;timestamp;temperature;humidity
49379;DHT22;35254;47.990;-1.608;2023-01-28T00:02:03;18.80;44.50
49379;DHT22;35254;47.990;-1.608;2023-01-28T00:04:28;18.80;44.50
49379;DHT22;35254;47.990;-1.608;2023-01-28T00:06:54;18.80;44.40
49379;DHT22;35254;47.990;-1.608;2023-01-28T00:09:20;18.80;44.40
49379;DHT22;35254;47.990;-1.608;2023-01-28T00:11:45;18.80;44.40
49379;DHT22;35254;47.990;-1.608;2023-01-28T00:14:11;18.80;44.50
49379;DHT22;35254;47.990;-1.608;2023-01-28T00:16:37;18.90;44.50
49379;DHT22;35254;47.990;-1.608;2023-01-28T00:19:02;18.80;44.60
49379;DHT22;35254;47.990;-1.608;2023-01-28T00:21:28;18.80;44.60
49379;DHT22;35254;47.990;-1.608;2023-01-28T00:23:55;18.80;44.60
49379;DHT22;35254;47.990;-1.608;2023-01-28T00:26:21;18.80;44.70
49379;DHT22;35254;47.990;-1.608;2023-01-28T00:28:47;18.80;44.70
49379;DHT22;35254;47.990;-1.608;2023-01-28T00:31:18;18.90;44.80
49379;DHT22;35254;47.990;-1.608;2023-01-28T00:33:45;18.80;44.80
49379;DHT22;35254;47.990;-1.608;2023-01-28T00:36:14;18.80;44.90
49379;DHT22;35254;47.990;-1.608;2023-01-28T00:38:39;18.80;44.90
49379;DHT22;35254;47.990;-1.608;2023-01-28T00:43:35;18.80;44.80
49379;DHT22;35254;47.990;-1.608;2023-01-28T00:46:01;18.80;44.80
49379;DHT22;35254;47.990;-1.608;2023-01-28T00:48:26;18.80;44.90
49379;DHT22;35254;47.990;-1.608;2023-01-28T00:50:52;18.80;44.90
49379;DHT22;35254;47.990;-1.608;2023-01-28T00:53:17;18.80;44.80
49379;DHT22;35254;47.990;-1.608;2023-01-28T00:55:43;18.80;44.60
49379;DHT22;35254;47.990;-1.608;2023-01-28T00:58:09;18.90;44.50
49379;DHT22;35254;47.990;-1.608;2023-01-28T01:00:37;18.90;44.50
49379;DHT22;35254;47.990;-1.608;2023-01-28T01:03:03;18.90;44.40
49379;DHT22;35254;47.990;-1.608;2023-01-28T01:05:28;18.90;44.40
49379;DHT22;35254;47.990;-1.608;2023-01-28T01:07:54;18.80;44.30
49379;DHT22;35254;47.990;-1.608;2023-01-28T01:10:20;18.90;44.30
49379;DHT22;35254;47.990;-1.608;2023-01-28T01:12:47;18.90;44.30
49379;DHT22;35254;47.990;-1.608;2023-01-28T01:15:13;18.90;44.30
49379;DHT22;35254;47.990;-1.608;2023-01-28T01:17:40;18.90;44.30
49379;DHT22;35254;47.990;-1.608;2023-01-28T01:20:11;18.90;44.30
49379;DHT22;35254;47.990;-1.608;2023-01-28T01:22:37;18.90;44.40
49379;DHT22;35254;47.990;-1.608;2023-01-28T01:25:03;18.90;44.40
49379;DHT22;35254;47.990;-1.608;2023-01-28T01:27:30;18.90;44.50
49379;DHT22;35254;47.990;-1.608;2023-01-28T01:29:55;18.90;44.40
49379;DHT22;35254;47.990;-1.608;2023-01-28T01:32:22;18.90;44.50
49379;DHT22;35254;47.990;-1.608;2023-01-28T01:34:47;18.90;44.40
49379;DHT22;35254;47.990;-1.608;2023-01-28T01:37:13;18.90;44.40
49379;DHT22;35254;47.990;-1.608;2023-01-28T01:39:39;18.80;44.40
49379;DHT22;35254;47.990;-1.608;2023-01-28T01:42:05;18.90;44.40
49379;DHT22;35254;47.990;-1.608;2023-01-28T01:50:31;18.90;44.50
49379;DHT22;35254;47.990;-1.608;2023-01-28T01:53:24;18.90;44.50
49379;DHT22;35254;47.990;-1.608;2023-01-28T01:55:52;18.80;44.50
49379;DHT22;35254;47.990;-1.608;2023-01-28T01:58:22;18.90;44.50
49379;DHT22;35254;47.990;-1.608;2023-01-28T02:00:50;18.80;44.50
49379;DHT22;35254;47.990;-1.608;2023-01-28T02:03:18;18.80;44.50
49379;DHT22;35254;47.990;-1.608;2023-01-28T02:05:45;18.80;44.50
49379;DHT22;35254;47.990;-1.608;2023-01-28T02:08:13;18.90;44.50
49379;DHT22;35254;47.990;-1.608;2023-01-28T02:11:03;18.90;44.40
49379;DHT22;35254;47.990;-1.608;2023-01-28T02:13:33;18.90;44.40
49379;DHT22;35254;47.990;-1.608;2023-01-28T02:16:00;18.90;44.40
49379;DHT22;35254;47.990;-1.608;2023-01-28T02:18:27;18.90;44.30
49379;DHT22;35254;47.990;-1.608;2023-01-28T02:31:54;18.90;44.20
49379;DHT22;35254;47.990;-1.608;2023-01-28T02:34:35;18.90;44.20
49379;DHT22;35254;47.990;-1.608;2023-01-28T02:37:11;18.90;44.10
49379;DHT22;35254;47.990;-1.608;2023-01-28T02:39:50;18.80;44.10
49379;DHT22;35254;47.990;-1.608;2023-01-28T02:42:27;18.90;44.20
49379;DHT22;35254;47.990;-1.608;2023-01-28T02:44:54;18.90;44.10
49379;DHT22;35254;47.990;-1.608;2023-01-28T02:47:20;18.90;44.10
49379;DHT22;35254;47.990;-1.608;2023-01-28T02:50:15;18.90;44.10
49379;DHT22;35254;47.990;-1.608;2023-01-28T02:56:15;18.90;44.10
49379;DHT22;35254;47.990;-1.608;2023-01-28T02:58:54;18.80;44.10
49379;DHT22;35254;47.990;-1.608;2023-01-28T03:01:38;18.90;44.10
49379;DHT22;35254;47.990;-1.608;2023-01-28T03:04:31;18.90;44.00
49379;DHT22;35254;47.990;-1.608;2023-01-28T03:07:02;18.90;44.00
49379;DHT22;35254;47.990;-1.608;2023-01-28T03:09:30;18.90;44.00
49379;DHT22;35254;47.990;-1.608;2023-01-28T03:12:02;18.90;44.00
49379;DHT22;35254;47.990;-1.608;2023-01-28T03:15:00;18.90;44.00
49379;DHT22;35254;47.990;-1.608;2023-01-28T03:17:51;18.90;43.90
49379;DHT22;35254;47.990;-1.608;2023-01-28T03:20:43;18.90;43.90
49379;DHT22;35254;47.990;-1.608;2023-01-28T03:23:40;19.00;43.90
49379;DHT22;35254;47.990;-1.608;2023-01-28T03:26:30;18.90;43.90
49379;DHT22;35254;47.990;-1.608;2023-01-28T03:29:17;19.00;43.90
49379;DHT22;35254;47.990;-1.608;2023-01-28T03:32:02;19.00;43.80
49379;DHT22;35254;47.990;-1.608;2023-01-28T03:34:47;19.00;43.80
49379;DHT22;35254;47.990;-1.608;2023-01-28T03:37:32;19.00;43.70
49379;DHT22;35254;47.990;-1.608;2023-01-28T03:40:06;19.00;43.70
49379;DHT22;35254;47.990;-1.608;2023-01-28T03:42:32;18.90;43.70
49379;DHT22;35254;47.990;-1.608;2023-01-28T03:44:59;19.00;43.70
49379;DHT22;35254;47.990;-1.608;2023-01-28T03:47:27;19.00;43.70
49379;DHT22;35254;47.990;-1.608;2023-01-28T03:49:55;19.00;43.60
49379;DHT22;35254;47.990;-1.608;2023-01-28T03:52:24;19.00;43.60
49379;DHT22;35254;47.990;-1.608;2023-01-28T03:54:50;19.00;43.50
49379;DHT22;35254;47.990;-1.608;2023-01-28T03:57:22;19.00;43.40
49379;DHT22;35254;47.990;-1.608;2023-01-28T03:59:48;19.00;43.40
49379;DHT22;35254;47.990;-1.608;2023-01-28T04:02:16;19.00;43.40
49379;DHT22;35254;47.990;-1.608;2023-01-28T04:04:42;19.00;43.30
49379;DHT22;35254;47.990;-1.608;2023-01-28T04:07:09;19.00;43.30
49379;DHT22;35254;47.990;-1.608;2023-01-28T04:09:41;19.00;43.30
49379;DHT22;35254;47.990;-1.608;2023-01-28T04:12:08;19.00;43.30
49379;DHT22;35254;47.990;-1.608;2023-01-28T04:14:34;19.00;43.30
49379;DHT22;35254;47.990;-1.608;2023-01-28T04:17:00;19.00;43.30
49379;DHT22;35254;47.990;-1.608;2023-01-28T04:19:26;19.00;43.20
49379;DHT22;35254;47.990;-1.608;2023-01-28T04:21:53;19.00;43.20
49379;DHT22;35254;47.990;-1.608;2023-01-28T04:24:19;19.00;43.20
49379;DHT22;35254;47.990;-1.608;2023-01-28T04:26:45;19.00;43.10
49379;DHT22;35254;47.990;-1.608;2023-01-28T04:29:10;19.10;43.10
49379;DHT22;35254;47.990;-1.608;2023-01-28T04:31:36;19.00;43.10
49379;DHT22;35254;47.990;-1.608;2023-01-28T04:34:02;19.00;43.10
49379;DHT22;35254;47.990;-1.608;2023-01-28T04:36:27;19.00;43.10
49379;DHT22;35254;47.990;-1.608;2023-01-28T04:38:53;19.00;43.00
49379;DHT22;35254;47.990;-1.608;2023-01-28T04:41:19;19.00;43.00
49379;DHT22;35254;47.990;-1.608;2023-01-28T04:43:45;19.10;42.90
49379;DHT22;35254;47.990;-1.608;2023-01-28T04:46:10;19.10;42.90
49379;DHT22;35254;47.990;-1.608;2023-01-28T04:48:36;19.00;42.80
49379;DHT22;35254;47.990;-1.608;2023-01-28T04:51:03;19.10;42.80
49379;DHT22;35254;47.990;-1.608;2023-01-28T04:53:29;19.10;42.80
49379;DHT22;35254;47.990;-1.608;2023-01-28T04:55:56;19.10;42.70
49379;DHT22;35254;47.990;-1.608;2023-01-28T04:58:22;19.10;42.70
49379;DHT22;35254;47.990;-1.608;2023-01-28T05:00:56;19.10;42.60
49379;DHT22;35254;47.990;-1.608;2023-01-28T05:03:22;19.10;42.60
49379;DHT22;35254;47.990;-1.608;2023-01-28T05:05:48;19.10;42.60
49379;DHT22;35254;47.990;-1.608;2023-01-28T05:08:13;19.10;42.60
49379;DHT22;35254;47.990;-1.608;2023-01-28T05:10:39;19.10;42.60
49379;DHT22;35254;47.990;-1.608;2023-01-28T05:13:05;19.20;42.50
49379;DHT22;35254;47.990;-1.608;2023-01-28T05:15:31;19.10;42.50
49379;DHT22;35254;47.990;-1.608;2023-01-28T05:17:56;19.10;42.50
49379;DHT22;35254;47.990;-1.608;2023-01-28T05:20:22;19.10;42.50
49379;DHT22;35254;47.990;-1.608;2023-01-28T05:22:48;19.10;42.50
49379;DHT22;35254;47.990;-1.608;2023-01-28T05:25:14;19.20;42.40
49379;DHT22;35254;47.990;-1.608;2023-01-28T05:27:39;19.20;42.40
49379;DHT22;35254;47.990;-1.608;2023-01-28T05:30:05;19.20;42.30
49379;DHT22;35254;47.990;-1.608;2023-01-28T05:32:31;19.20;42.30
49379;DHT22;35254;47.990;-1.608;2023-01-28T05:34:57;19.20;42.20
49379;DHT22;35254;47.990;-1.608;2023-01-28T05:37:23;19.20;42.10
49379;DHT22;35254;47.990;-1.608;2023-01-28T05:39:48;19.20;42.10
49379;DHT22;35254;47.990;-1.608;2023-01-28T05:42:14;19.20;42.00
49379;DHT22;35254;47.990;-1.608;2023-01-28T05:44:40;19.20;42.00
49379;DHT22;35254;47.990;-1.608;2023-01-28T05:47:06;19.20;42.10
49379;DHT22;35254;47.990;-1.608;2023-01-28T05:49:32;19.20;42.00
49379;DHT22;35254;47.990;-1.608;2023-01-28T05:51:57;19.20;42.00
49379;DHT22;35254;47.990;-1.608;2023-01-28T05:54:23;19.20;42.00
49379;DHT22;35254;47.990;-1.608;2023-01-28T05:56:49;19.20;42.00
49379;DHT22;35254;47.990;-1.608;2023-01-28T05:59:15;19.20;41.90
49379;DHT22;35254;47.990;-1.608;2023-01-28T06:01:40;19.20;41.90
49379;DHT22;35254;47.990;-1.608;2023-01-28T06:04:06;19.20;41.90
49379;DHT22;35254;47.990;-1.608;2023-01-28T06:06:32;19.20;42.00
49379;DHT22;35254;47.990;-1.608;2023-01-28T06:08:57;19.20;41.90
49379;DHT22;35254;47.990;-1.608;2023-01-28T06:11:23;19.20;42.00
49379;DHT22;35254;47.990;-1.608;2023-01-28T06:13:49;19.20;42.10
49379;DHT22;35254;47.990;-1.608;2023-01-28T06:16:14;19.20;42.10
49379;DHT22;35254;47.990;-1.608;2023-01-28T06:18:40;19.20;42.00
49379;DHT22;35254;47.990;-1.608;2023-01-28T06:21:06;19.20;42.00
49379;DHT22;35254;47.990;-1.608;2023-01-28T06:23:32;19.20;41.90
49379;DHT22;35254;47.990;-1.608;2023-01-28T06:25:58;19.20;42.00
49379;DHT22;35254;47.990;-1.608;2023-01-28T06:28:24;19.20;42.00
49379;DHT22;35254;47.990;-1.608;2023-01-28T06:30:51;19.20;41.90
49379;DHT22;35254;47.990;-1.608;2023-01-28T06:33:18;19.20;41.70
49379;DHT22;35254;47.990;-1.608;2023-01-28T06:35:44;19.30;41.80
49379;DHT22;35254;47.990;-1.608;2023-01-28T06:38:10;19.20;41.70
49379;DHT22;35254;47.990;-1.608;2023-01-28T06:40:36;19.30;41.70
49379;DHT22;35254;47.990;-1.608;2023-01-28T06:43:02;19.20;41.70
49379;DHT22;35254;47.990;-1.608;2023-01-28T06:45:28;19.20;41.60
49379;DHT22;35254;47.990;-1.608;2023-01-28T06:47:54;19.20;41.60
49379;DHT22;35254;47.990;-1.608;2023-01-28T06:50:19;19.30;41.60
49379;DHT22;35254;47.990;-1.608;2023-01-28T06:52:45;19.20;41.60
49379;DHT22;35254;47.990;-1.608;2023-01-28T06:55:11;19.30;41.50
49379;DHT22;35254;47.990;-1.608;2023-01-28T06:57:37;19.30;41.50
49379;DHT22;35254;47.990;-1.608;2023-01-28T07:00:05;19.20;41.30
49379;DHT22;35254;47.990;-1.608;2023-01-28T07:02:31;19.20;41.50
49379;DHT22;35254;47.990;-1.608;2023-01-28T07:04:57;19.20;41.50
49379;DHT22;35254;47.990;-1.608;2023-01-28T07:07:22;19.20;41.40
49379;DHT22;35254;47.990;-1.608;2023-01-28T07:09:48;19.20;41.40
49379;DHT22;35254;47.990;-1.608;2023-01-28T07:12:13;19.20;41.40
49379;DHT22;35254;47.990;-1.608;2023-01-28T07:14:39;19.20;41.40
49379;DHT22;35254;47.990;-1.608;2023-01-28T07:17:05;19.20;41.30
49379;DHT22;35254;47.990;-1.608;2023-01-28T07:19:31;19.20;41.30
49379;DHT22;35254;47.990;-1.608;2023-01-28T07:21:56;19.20;41.40
49379;DHT22;35254;47.990;-1.608;2023-01-28T07:24:25;19.20;41.30
49379;DHT22;35254;47.990;-1.608;2023-01-28T07:26:51;19.20;41.30
49379;DHT22;35254;47.990;-1.608;2023-01-28T07:29:16;19.20;41.30
49379;DHT22;35254;47.990;-1.608;2023-01-28T07:31:42;19.20;41.20
49379;DHT22;35254;47.990;-1.608;2023-01-28T07:34:08;19.20;41.70
49379;DHT22;35254;47.990;-1.608;2023-01-28T07:36:33;19.20;41.50
49379;DHT22;35254;47.990;-1.608;2023-01-28T07:38:59;19.20;41.40
49379;DHT22;35254;47.990;-1.608;2023-01-28T07:41:25;19.20;41.20
49379;DHT22;35254;47.990;-1.608;2023-01-28T07:43:50;19.20;41.20
49379;DHT22;35254;47.990;-1.608;2023-01-28T07:46:16;19.20;41.30
49379;DHT22;35254;47.990;-1.608;2023-01-28T07:48:42;19.20;41.70
49379;DHT22;35254;47.990;-1.608;2023-01-28T07:51:07;19.20;42.20
49379;DHT22;35254;47.990;-1.608;2023-01-28T07:53:33;19.20;42.70
49379;DHT22;35254;47.990;-1.608;2023-01-28T07:56:00;19.20;42.60
49379;DHT22;35254;47.990;-1.608;2023-01-28T07:58:26;19.20;42.40
49379;DHT22;35254;47.990;-1.608;2023-01-28T08:00:55;19.20;42.30
49379;DHT22;35254;47.990;-1.608;2023-01-28T08:03:22;19.20;42.20
49379;DHT22;35254;47.990;-1.608;2023-01-28T08:05:50;19.20;41.90
49379;DHT22;35254;47.990;-1.608;2023-01-28T08:08:16;19.20;42.40
49379;DHT22;35254;47.990;-1.608;2023-01-28T08:10:42;19.10;42.20
49379;DHT22;35254;47.990;-1.608;2023-01-28T08:13:11;19.20;42.00
49379;DHT22;35254;47.990;-1.608;2023-01-28T08:15:38;19.20;41.90
49379;DHT22;35254;47.990;-1.608;2023-01-28T08:18:05;19.20;41.80
49379;DHT22;35254;47.990;-1.608;2023-01-28T08:20:31;19.20;41.60
49379;DHT22;35254;47.990;-1.608;2023-01-28T08:23:15;19.20;41.10
49379;DHT22;35254;47.990;-1.608;2023-01-28T08:25:41;19.20;41.00
49379;DHT22;35254;47.990;-1.608;2023-01-28T08:28:07;19.20;40.80
49379;DHT22;35254;47.990;-1.608;2023-01-28T08:30:34;19.20;40.90
49379;DHT22;35254;47.990;-1.608;2023-01-28T08:32:59;19.20;40.80
49379;DHT22;35254;47.990;-1.608;2023-01-28T08:35:26;19.20;40.80
49379;DHT22;35254;47.990;-1.608;2023-01-28T08:37:52;19.30;40.80
49379;DHT22;35254;47.990;-1.608;2023-01-28T08:40:19;19.20;41.00
49379;DHT22;35254;47.990;-1.608;2023-01-28T08:42:52;19.30;40.70
49379;DHT22;35254;47.990;-1.608;2023-01-28T08:45:19;19.30;41.00
49379;DHT22;35254;47.990;-1.608;2023-01-28T08:47:54;19.40;41.20
49379;DHT22;35254;47.990;-1.608;2023-01-28T08:50:21;19.30;41.40
49379;DHT22;35254;47.990;-1.608;2023-01-28T08:52:47;19.30;41.40
49379;DHT22;35254;47.990;-1.608;2023-01-28T08:55:15;19.30;41.30
49379;DHT22;35254;47.990;-1.608;2023-01-28T08:57:41;19.30;40.90
49379;DHT22;35254;47.990;-1.608;2023-01-28T09:00:07;19.20;41.00
49379;DHT22;35254;47.990;-1.608;2023-01-28T09:02:36;19.30;41.00
49379;DHT22;35254;47.990;-1.608;2023-01-28T09:05:01;19.30;41.10
49379;DHT22;35254;47.990;-1.608;2023-01-28T09:07:27;19.30;41.20
49379;DHT22;35254;47.990;-1.608;2023-01-28T09:09:53;19.30;41.30
49379;DHT22;35254;47.990;-1.608;2023-01-28T09:12:18;19.40;41.60
49379;DHT22;35254;47.990;-1.608;2023-01-28T09:14:44;19.40;41.20
49379;DHT22;35254;47.990;-1.608;2023-01-28T09:17:10;19.40;41.40
49379;DHT22;35254;47.990;-1.608;2023-01-28T09:19:35;19.40;41.40
49379;DHT22;35254;47.990;-1.608;2023-01-28T09:22:04;19.40;41.30
49379;DHT22;35254;47.990;-1.608;2023-01-28T09:24:29;19.40;41.10
49379;DHT22;35254;47.990;-1.608;2023-01-28T09:26:55;19.40;41.10
49379;DHT22;35254;47.990;-1.608;2023-01-28T09:29:21;19.30;39.40
49379;DHT22;35254;47.990;-1.608;2023-01-28T09:31:46;19.40;40.80
49379;DHT22;35254;47.990;-1.608;2023-01-28T09:34:12;19.30;39.40
49379;DHT22;35254;47.990;-1.608;2023-01-28T09:36:38;19.30;39.90
49379;DHT22;35254;47.990;-1.608;2023-01-28T09:39:04;19.30;40.40
49379;DHT22;35254;47.990;-1.608;2023-01-28T09:46:52;19.20;40.70
49379;DHT22;35254;47.990;-1.608;2023-01-28T09:49:39;19.30;40.70
49379;DHT22;35254;47.990;-1.608;2023-01-28T09:52:12;19.30;40.80
49379;DHT22;35254;47.990;-1.608;2023-01-28T09:54:47;19.30;40.80
49379;DHT22;35254;47.990;-1.608;2023-01-28T09:57:22;19.30;40.80
49379;DHT22;35254;47.990;-1.608;2023-01-28T09:59:48;19.30;40.90
49379;DHT22;35254;47.990;-1.608;2023-01-28T10:02:28;19.30;40.90
49379;DHT22;35254;47.990;-1.608;2023-01-28T10:10:38;19.40;40.90
49379;DHT22;35254;47.990;-1.608;2023-01-28T10:13:16;19.40;40.90
49379;DHT22;35254;47.990;-1.608;2023-01-28T10:18:29;19.40;40.90
49379;DHT22;35254;47.990;-1.608;2023-01-28T10:21:30;19.40;40.90
49379;DHT22;35254;47.990;-1.608;2023-01-28T10:26:36;19.40;41.00
49379;DHT22;35254;47.990;-1.608;2023-01-28T10:29:19;19.40;41.00
49379;DHT22;35254;47.990;-1.608;2023-01-28T10:31:53;19.50;41.00
49379;DHT22;35254;47.990;-1.608;2023-01-28T10:34:20;19.50;41.10
49379;DHT22;35254;47.990;-1.608;2023-01-28T10:36:46;19.50;41.10
49379;DHT22;35254;47.990;-1.608;2023-01-28T10:39:18;19.60;41.20
49379;DHT22;35254;47.990;-1.608;2023-01-28T10:41:44;19.50;41.20
49379;DHT22;35254;47.990;-1.608;2023-01-28T10:44:20;19.50;41.40
49379;DHT22;35254;47.990;-1.608;2023-01-28T10:46:52;19.50;41.60
49379;DHT22;35254;47.990;-1.608;2023-01-28T10:49:27;19.40;41.80
49379;DHT22;35254;47.990;-1.608;2023-01-28T10:51:53;19.40;42.20
49379;DHT22;35254;47.990;-1.608;2023-01-28T10:54:25;19.40;42.30
49379;DHT22;35254;47.990;-1.608;2023-01-28T10:56:53;19.40;42.30
49379;DHT22;35254;47.990;-1.608;2023-01-28T10:59:20;19.40;42.60
49379;DHT22;35254;47.990;-1.608;2023-01-28T11:01:53;19.40;42.70
49379;DHT22;35254;47.990;-1.608;2023-01-28T11:04:32;19.40;42.80
49379;DHT22;35254;47.990;-1.608;2023-01-28T11:07:00;19.40;42.90
49379;DHT22;35254;47.990;-1.608;2023-01-28T11:09:29;19.30;42.90
49379;DHT22;35254;47.990;-1.608;2023-01-28T11:11:56;19.30;42.90
49379;DHT22;35254;47.990;-1.608;2023-01-28T11:14:25;19.30;42.90
49379;DHT22;35254;47.990;-1.608;2023-01-28T11:16:52;19.30;42.80
49379;DHT22;35254;47.990;-1.608;2023-01-28T11:19:20;19.30;42.90
49379;DHT22;35254;47.990;-1.608;2023-01-28T11:21:54;19.30;42.90
49379;DHT22;35254;47.990;-1.608;2023-01-28T11:24:33;19.30;43.00
49379;DHT22;35254;47.990;-1.608;2023-01-28T11:27:10;19.30;43.00
49379;DHT22;35254;47.990;-1.608;2023-01-28T11:29:39;19.30;42.90
49379;DHT22;35254;47.990;-1.608;2023-01-28T11:32:18;19.20;42.90
49379;DHT22;35254;47.990;-1.608;2023-01-28T11:34:52;19.20;43.10
49379;DHT22;35254;47.990;-1.608;2023-01-28T11:37:31;19.20;43.20
49379;DHT22;35254;47.990;-1.608;2023-01-28T11:42:27;19.20;43.20
49379;DHT22;35254;47.990;-1.608;2023-01-28T11:44:54;19.20;42.80
49379;DHT22;35254;47.990;-1.608;2023-01-28T11:50:14;19.20;42.90
49379;DHT22;35254;47.990;-1.608;2023-01-28T11:58:25;19.20;43.10
49379;DHT22;35254;47.990;-1.608;2023-01-28T12:01:08;19.20;43.10
49379;DHT22;35254;47.990;-1.608;2023-01-28T12:03:40;19.20;43.10
49379;DHT22;35254;47.990;-1.608;2023-01-28T12:06:35;19.20;43.00
49379;DHT22;35254;47.990;-1.608;2023-01-28T12:17:31;19.10;43.00
49379;DHT22;35254;47.990;-1.608;2023-01-28T12:23:14;19.10;42.90
49379;DHT22;35254;47.990;-1.608;2023-01-28T12:25:59;19.20;42.80
49379;DHT22;35254;47.990;-1.608;2023-01-28T12:28:56;19.20;42.90
49379;DHT22;35254;47.990;-1.608;2023-01-28T12:43:19;18.90;38.90
49379;DHT22;35254;47.990;-1.608;2023-01-28T12:46:17;18.90;41.30
49379;DHT22;35254;47.990;-1.608;2023-01-28T12:52:21;19.00;43.60
49379;DHT22;35254;47.990;-1.608;2023-01-28T12:55:02;19.00;44.70
49379;DHT22;35254;47.990;-1.608;2023-01-28T12:57:29;19.00;44.90
49379;DHT22;35254;47.990;-1.608;2023-01-28T13:05:38;19.00;46.30
49379;DHT22;35254;47.990;-1.608;2023-01-28T13:08:10;19.00;47.30
49379;DHT22;35254;47.990;-1.608;2023-01-28T13:10:45;19.00;47.90
49379;DHT22;35254;47.990;-1.608;2023-01-28T13:13:17;19.00;48.50
49379;DHT22;35254;47.990;-1.608;2023-01-28T13:15:45;19.00;48.10
49379;DHT22;35254;47.990;-1.608;2023-01-28T13:20:53;19.00;47.30
49379;DHT22;35254;47.990;-1.608;2023-01-28T13:26:50;19.00;46.80
49379;DHT22;35254;47.990;-1.608;2023-01-28T13:29:26;19.00;46.70
49379;DHT22;35254;47.990;-1.608;2023-01-28T13:31:58;19.00;46.70
49379;DHT22;35254;47.990;-1.608;2023-01-28T13:34:38;19.00;46.70
49379;DHT22;35254;47.990;-1.608;2023-01-28T13:37:23;19.00;46.70
49379;DHT22;35254;47.990;-1.608;2023-01-28T13:42:37;19.00;46.60
49379;DHT22;35254;47.990;-1.608;2023-01-28T13:47:45;19.00;46.40
49379;DHT22;35254;47.990;-1.608;2023-01-28T13:50:15;19.00;46.30
49379;DHT22;35254;47.990;-1.608;2023-01-28T13:52:49;19.00;46.20
49379;DHT22;35254;47.990;-1.608;2023-01-28T13:55:22;19.10;46.00
49379;DHT22;35254;47.990;-1.608;2023-01-28T13:58:24;19.10;45.90
49379;DHT22;35254;47.990;-1.608;2023-01-28T14:01:16;19.10;45.80
49379;DHT22;35254;47.990;-1.608;2023-01-28T14:17:46;19.10;45.60
49379;DHT22;35254;47.990;-1.608;2023-01-28T14:20:19;19.10;45.40
49379;DHT22;35254;47.990;-1.608;2023-01-28T14:22:47;19.10;45.50
49379;DHT22;35254;47.990;-1.608;2023-01-28T14:25:22;19.10;45.70
49379;DHT22;35254;47.990;-1.608;2023-01-28T14:27:52;19.10;46.60
49379;DHT22;35254;47.990;-1.608;2023-01-28T14:30:42;19.20;46.40
49379;DHT22;35254;47.990;-1.608;2023-01-28T14:33:18;19.10;46.60
49379;DHT22;35254;47.990;-1.608;2023-01-28T14:35:54;19.20;46.60
49379;DHT22;35254;47.990;-1.608;2023-01-28T14:38:21;19.10;46.80
49379;DHT22;35254;47.990;-1.608;2023-01-28T14:40:50;19.10;46.70
49379;DHT22;35254;47.990;-1.608;2023-01-28T14:43:26;19.10;46.80
49379;DHT22;35254;47.990;-1.608;2023-01-28T14:51:57;19.10;47.20
49379;DHT22;35254;47.990;-1.608;2023-01-28T14:57:49;19.10;46.30
49379;DHT22;35254;47.990;-1.608;2023-01-28T15:00:21;19.10;46.20
49379;DHT22;35254;47.990;-1.608;2023-01-28T15:02:47;19.20;46.20
49379;DHT22;35254;47.990;-1.608;2023-01-28T15:05:21;19.10;46.00
49379;DHT22;35254;47.990;-1.608;2023-01-28T15:07:47;19.20;46.20
49379;DHT22;35254;47.990;-1.608;2023-01-28T15:10:25;19.20;46.80
49379;DHT22;35254;47.990;-1.608;2023-01-28T15:12:56;19.20;47.20
49379;DHT22;35254;47.990;-1.608;2023-01-28T15:15:45;19.20;47.00
49379;DHT22;35254;47.990;-1.608;2023-01-28T15:18:15;19.20;46.60
49379;DHT22;35254;47.990;-1.608;2023-01-28T15:20:45;19.20;46.70
49379;DHT22;35254;47.990;-1.608;2023-01-28T15:23:15;19.20;47.00
49379;DHT22;35254;47.990;-1.608;2023-01-28T15:25:42;19.20;46.70
49379;DHT22;35254;47.990;-1.608;2023-01-28T15:28:44;19.20;46.70
49379;DHT22;35254;47.990;-1.608;2023-01-28T15:31:33;19.20;46.70
49379;DHT22;35254;47.990;-1.608;2023-01-28T15:34:14;19.20;46.60
49379;DHT22;35254;47.990;-1.608;2023-01-28T15:36:41;19.20;46.80
49379;DHT22;35254;47.990;-1.608;2023-01-28T15:39:15;19.20;46.60
49379;DHT22;35254;47.990;-1.608;2023-01-28T15:42:04;19.20;46.60
49379;DHT22;35254;47.990;-1.608;2023-01-28T15:44:43;19.20;46.50
49379;DHT22;35254;47.990;-1.608;2023-01-28T15:47:32;19.20;46.60
49379;DHT22;35254;47.990;-1.608;2023-01-28T15:50:03;19.20;46.40
49379;DHT22;35254;47.990;-1.608;2023-01-28T15:52:47;19.20;46.40
49379;DHT22;35254;47.990;-1.608;2023-01-28T15:55:41;19.20;46.30
49379;DHT22;35254;47.990;-1.608;2023-01-28T16:00:37;19.20;46.80
49379;DHT22;35254;47.990;-1.608;2023-01-28T16:03:08;19.20;46.60
49379;DHT22;35254;47.990;-1.608;2023-01-28T16:05:39;19.20;46.40
49379;DHT22;35254;47.990;-1.608;2023-01-28T16:11:08;19.20;46.20
49379;DHT22;35254;47.990;-1.608;2023-01-28T16:13:45;19.20;46.90
49379;DHT22;35254;47.990;-1.608;2023-01-28T16:16:12;19.20;46.50
49379;DHT22;35254;47.990;-1.608;2023-01-28T16:18:46;19.20;46.30
49379;DHT22;35254;47.990;-1.608;2023-01-28T16:21:20;19.20;46.20
49379;DHT22;35254;47.990;-1.608;2023-01-28T16:23:51;19.10;46.00
49379;DHT22;35254;47.990;-1.608;2023-01-28T16:26:24;19.20;45.90
49379;DHT22;35254;47.990;-1.608;2023-01-28T16:28:50;19.10;46.10
49379;DHT22;35254;47.990;-1.608;2023-01-28T16:31:17;19.20;46.30
49379;DHT22;35254;47.990;-1.608;2023-01-28T16:33:43;19.10;46.00
49379;DHT22;35254;47.990;-1.608;2023-01-28T16:36:13;19.10;46.10
49379;DHT22;35254;47.990;-1.608;2023-01-28T16:38:39;19.10;46.20
49379;DHT22;35254;47.990;-1.608;2023-01-28T16:41:14;19.10;46.40
49379;DHT22;35254;47.990;-1.608;2023-01-28T16:43:43;19.10;46.40
49379;DHT22;35254;47.990;-1.608;2023-01-28T16:46:11;19.10;45.80
49379;DHT22;35254;47.990;-1.608;2023-01-28T16:48:37;19.10;45.90
49379;DHT22;35254;47.990;-1.608;2023-01-28T16:51:03;19.20;45.90
49379;DHT22;35254;47.990;-1.608;2023-01-28T16:53:31;19.10;45.80
49379;DHT22;35254;47.990;-1.608;2023-01-28T16:58:33;19.10;45.70
49379;DHT22;35254;47.990;-1.608;2023-01-28T17:00:58;19.10;45.40
49379;DHT22;35254;47.990;-1.608;2023-01-28T17:03:24;19.10;45.80
49379;DHT22;35254;47.990;-1.608;2023-01-28T17:05:50;19.10;45.60
49379;DHT22;35254;47.990;-1.608;2023-01-28T17:08:16;19.10;45.50
49379;DHT22;35254;47.990;-1.608;2023-01-28T17:10:41;19.10;45.50
49379;DHT22;35254;47.990;-1.608;2023-01-28T17:13:07;19.10;45.40
49379;DHT22;35254;47.990;-1.608;2023-01-28T17:15:34;19.10;45.50
49379;DHT22;35254;47.990;-1.608;2023-01-28T17:18:00;19.10;45.50
49379;DHT22;35254;47.990;-1.608;2023-01-28T17:20:26;19.10;45.60
49379;DHT22;35254;47.990;-1.608;2023-01-28T17:22:52;19.10;45.60
49379;DHT22;35254;47.990;-1.608;2023-01-28T17:25:17;19.00;45.50
49379;DHT22;35254;47.990;-1.608;2023-01-28T17:27:43;19.00;45.80
49379;DHT22;35254;47.990;-1.608;2023-01-28T17:30:09;19.00;45.70
49379;DHT22;35254;47.990;-1.608;2023-01-28T17:32:35;19.00;45.60
49379;DHT22;35254;47.990;-1.608;2023-01-28T17:35:00;19.10;45.60
49379;DHT22;35254;47.990;-1.608;2023-01-28T17:37:26;19.00;45.50
49379;DHT22;35254;47.990;-1.608;2023-01-28T17:39:52;19.00;45.50